createdAt,value
2019-01-30T00:00:43.560Z,94540.39
2019-01-30T00:03:14.844Z,94533.30
2019-01-30T00:05:46.124Z,94535.78
2019-01-30T00:08:17.725Z,94521.23
2019-01-30T00:10:48.822Z,94518.06
2019-01-30T00:13:20.034Z,94515.81
2019-01-30T00:15:56.296Z,94512.35
2019-01-30T00:18:23.730Z,94505.33
2019-01-30T00:20:55.005Z,94495.10
2019-01-30T00:23:26.336Z,94496.08
2019-01-30T00:25:58.095Z,94477.62
2019-01-30T00:28:30.768Z,94477.62
2019-01-30T00:31:02.053Z,94469.80
2019-01-30T00:33:33.637Z,94464.72
2019-01-30T00:36:04.935Z,94455.84
2019-01-30T00:38:36.133Z,94455.48
2019-01-30T00:41:07.409Z,94442.64
2019-01-30T00:43:38.372Z,94438.65
2019-01-30T00:46:09.727Z,94444.31
2019-01-30T00:48:41.810Z,94452.77
2019-01-30T00:51:13.149Z,94451.22
2019-01-30T00:53:44.381Z,94440.45
2019-01-30T00:56:16.010Z,94438.76
2019-01-30T00:58:47.259Z,94437.55
2019-01-30T01:01:18.279Z,94439.02
2019-01-30T01:03:49.259Z,94432.67
2019-01-30T01:06:20.474Z,94437.86
2019-01-30T01:08:51.776Z,94438.41
2019-01-30T01:11:23.012Z,94447.37
2019-01-30T01:13:54.442Z,94440.57
2019-01-30T01:16:26.258Z,94440.70
2019-01-30T01:18:57.563Z,94435.64
2019-01-30T01:21:28.514Z,94431.05
2019-01-30T01:24:00.375Z,94432.48
2019-01-30T01:26:31.824Z,94436.57
2019-01-30T01:29:03.062Z,94444.80
2019-01-30T01:37:57.507Z,94438.50
2019-01-30T01:40:28.847Z,94427.39
2019-01-30T01:42:59.902Z,94423.84
2019-01-30T01:45:31.045Z,94419.11
2019-01-30T01:48:02.524Z,94414.00
2019-01-30T01:50:33.835Z,94408.22
2019-01-30T01:53:04.946Z,94400.22
2019-01-30T01:55:36.878Z,94394.60
2019-01-30T01:58:08.992Z,94387.64
2019-01-30T02:00:40.190Z,94375.86
2019-01-30T02:03:11.532Z,94364.64
2019-01-30T02:05:42.608Z,94358.53
2019-01-30T02:08:13.780Z,94351.77
2019-01-30T02:10:45.403Z,94343.84
2019-01-30T02:13:16.434Z,94341.01
2019-01-30T02:15:47.449Z,94333.67
2019-01-30T02:18:18.993Z,94319.84
2019-01-30T02:20:50.013Z,94318.00
2019-01-30T02:23:21.343Z,94324.79
2019-01-30T02:25:52.659Z,94321.52
2019-01-30T02:28:23.664Z,94316.47
2019-01-30T02:30:54.974Z,94308.97
2019-01-30T02:33:26.187Z,94301.34
2019-01-30T02:35:57.270Z,94293.83
2019-01-30T02:38:28.568Z,94292.84
2019-01-30T02:40:59.653Z,94291.64
2019-01-30T02:43:30.689Z,94279.30
2019-01-30T02:46:01.779Z,94284.07
2019-01-30T02:48:32.861Z,94281.45
2019-01-30T02:51:04.023Z,94273.61
2019-01-30T02:53:36.763Z,94278.00
2019-01-30T02:56:08.785Z,94281.47
2019-01-30T02:58:39.846Z,94272.67
2019-01-30T03:01:11.277Z,94281.12
2019-01-30T03:03:42.432Z,94278.11
2019-01-30T03:06:13.578Z,94283.30
2019-01-30T03:08:44.682Z,94267.66
2019-01-30T03:11:16.517Z,94261.73
2019-01-30T03:13:47.854Z,94256.91
2019-01-30T03:16:18.907Z,94263.52
2019-01-30T03:18:50.343Z,94255.81
2019-01-30T03:21:21.404Z,94251.78
2019-01-30T03:23:52.939Z,94259.53
2019-01-30T03:26:24.184Z,94257.95
2019-01-30T03:28:55.253Z,94259.81
2019-01-30T03:31:26.638Z,94251.51
2019-01-30T03:33:57.903Z,94253.26
2019-01-30T03:36:29.424Z,94253.33
2019-01-30T03:39:00.513Z,94249.09
2019-01-30T03:41:31.612Z,94234.81
2019-01-30T03:44:02.635Z,94240.42
2019-01-30T03:46:34.090Z,94249.79
2019-01-30T03:49:05.510Z,94239.41
2019-01-30T03:51:36.794Z,94238.14
2019-01-30T03:54:07.858Z,94233.73
2019-01-30T03:56:38.994Z,94233.23
2019-01-30T03:59:10.107Z,94248.80
2019-01-30T04:01:41.491Z,94233.88
2019-01-30T04:04:12.797Z,94247.73
2019-01-30T04:06:43.835Z,94241.38
2019-01-30T04:09:15.281Z,94249.80
2019-01-30T04:11:46.709Z,94246.70
2019-01-30T04:14:18.368Z,94247.58
2019-01-30T04:16:49.661Z,94234.97
2019-01-30T04:19:20.711Z,94230.20
2019-01-30T04:21:51.986Z,94217.09
2019-01-30T04:24:23.026Z,94211.45
2019-01-30T04:26:54.102Z,94202.22
2019-01-30T04:29:26.667Z,94205.98
2019-01-30T04:31:57.690Z,94210.28
2019-01-30T04:34:28.713Z,94199.75
2019-01-30T04:37:00.003Z,94210.52
2019-01-30T04:39:31.104Z,94204.95
2019-01-30T04:42:02.409Z,94198.45
2019-01-30T04:44:33.688Z,94201.18
2019-01-30T04:47:04.769Z,94214.94
2019-01-30T04:49:36.741Z,94226.13
2019-01-30T04:52:07.891Z,94218.75
2019-01-30T04:54:38.960Z,94223.97
2019-01-30T04:57:10.062Z,94221.73
2019-01-30T04:59:41.121Z,94216.91
2019-01-30T05:02:12.445Z,94220.05
2019-01-30T05:04:43.552Z,94210.88
2019-01-30T05:07:14.645Z,94217.63
2019-01-30T05:09:45.978Z,94213.58
2019-01-30T05:12:17.052Z,94207.98
2019-01-30T05:14:48.079Z,94204.58
2019-01-30T05:17:19.320Z,94191.35
2019-01-30T05:19:50.578Z,94180.56
2019-01-30T05:22:21.688Z,94175.31
2019-01-30T05:24:52.966Z,94170.86
2019-01-30T05:27:24.302Z,94161.11
2019-01-30T05:29:55.321Z,94152.61
2019-01-30T05:32:26.576Z,94148.59
2019-01-30T05:34:58.135Z,94147.80
2019-01-30T05:37:29.383Z,94148.23
2019-01-30T05:40:00.931Z,94143.16
2019-01-30T05:42:33.443Z,94153.91
2019-01-30T05:45:05.990Z,94155.52
2019-01-30T05:47:37.319Z,94152.98
2019-01-30T05:50:09.811Z,94156.73
2019-01-30T05:52:41.143Z,94167.27
2019-01-30T05:55:15.767Z,94153.80
2019-01-30T05:57:47.188Z,94160.72
2019-01-30T06:00:26.019Z,94152.50
2019-01-30T06:02:57.767Z,94154.66
2019-01-30T06:05:28.939Z,94150.82
2019-01-30T06:08:00.196Z,94144.30
2019-01-30T06:10:31.823Z,94159.23
2019-01-30T06:13:02.840Z,94140.25
2019-01-30T06:15:33.861Z,94146.34
2019-01-30T06:18:05.438Z,94144.70
2019-01-30T06:20:36.924Z,94144.67
2019-01-30T06:23:08.013Z,94143.84
2019-01-30T06:25:39.266Z,94144.73
2019-01-30T06:28:10.307Z,94146.61
2019-01-30T06:30:41.391Z,94146.06
2019-01-30T06:33:12.555Z,94145.63
2019-01-30T06:35:43.707Z,94154.72
2019-01-30T06:38:15.073Z,94157.81
2019-01-30T06:40:46.299Z,94164.20
2019-01-30T06:43:17.316Z,94154.41
2019-01-30T06:45:48.411Z,94160.94
2019-01-30T06:48:19.570Z,94177.87
2019-01-30T06:50:50.929Z,94163.99
2019-01-30T06:53:22.014Z,94174.10
2019-01-30T06:55:53.279Z,94163.69
2019-01-30T06:58:24.350Z,94166.84
2019-01-30T07:00:55.454Z,94173.08
2019-01-30T07:03:26.847Z,94161.33
2019-01-30T07:05:58.620Z,94158.30
2019-01-30T07:08:29.963Z,94166.34
2019-01-30T07:11:10.447Z,94169.93
2019-01-30T07:13:34.006Z,94170.64
2019-01-30T07:16:05.502Z,94171.72
2019-01-30T07:18:37.995Z,94169.03
2019-01-30T07:21:09.143Z,94173.14
2019-01-30T07:23:40.621Z,94174.10
2019-01-30T07:26:12.094Z,94177.07
2019-01-30T07:28:43.150Z,94185.79
2019-01-30T07:31:14.497Z,94186.44
2019-01-30T07:33:45.738Z,94193.95
2019-01-30T07:36:16.872Z,94203.81
2019-01-30T07:38:48.159Z,94209.75
2019-01-30T07:41:19.711Z,94210.83
2019-01-30T07:43:50.986Z,94211.89
2019-01-30T07:46:22.325Z,94218.66
2019-01-30T07:48:53.431Z,94219.46
2019-01-30T07:51:24.944Z,94219.38
2019-01-30T07:53:56.267Z,94218.07
2019-01-30T07:56:29.027Z,94218.94
2019-01-30T07:59:00.399Z,94225.19
2019-01-30T08:01:31.811Z,94228.41
2019-01-30T08:04:02.798Z,94230.69
2019-01-30T08:06:34.058Z,94229.95
2019-01-30T08:09:09.383Z,94237.25
2019-01-30T08:11:40.540Z,94235.08
2019-01-30T08:14:13.164Z,94237.67
2019-01-30T08:16:44.552Z,94242.50
2019-01-30T08:19:15.645Z,94235.63
2019-01-30T08:21:46.734Z,94237.86
2019-01-30T08:24:17.976Z,94249.77
2019-01-30T08:26:49.645Z,94244.14
2019-01-30T08:29:20.914Z,94254.98
2019-01-30T08:31:52.002Z,94251.20
2019-01-30T08:34:23.032Z,94253.45
2019-01-30T08:36:54.041Z,94259.05
2019-01-30T08:39:25.045Z,94252.39
2019-01-30T08:41:56.131Z,94254.98
2019-01-30T08:44:27.789Z,94249.45
2019-01-30T08:46:59.117Z,94249.23
2019-01-30T08:49:30.105Z,94257.16
2019-01-30T08:52:01.751Z,94262.47
2019-01-30T08:54:33.028Z,94253.37
2019-01-30T08:57:04.502Z,94244.65
2019-01-30T08:59:35.673Z,94237.94
2019-01-30T09:02:08.199Z,94250.00
2019-01-30T09:04:40.553Z,94258.35
2019-01-30T09:07:11.571Z,94257.58
2019-01-30T09:09:43.215Z,94256.95
2019-01-30T09:12:14.726Z,94246.29
2019-01-30T09:14:45.934Z,94246.45
2019-01-30T09:17:18.500Z,94246.23
2019-01-30T09:19:49.843Z,94252.95
2019-01-30T09:22:21.505Z,94256.06
2019-01-30T09:24:53.059Z,94253.84
2019-01-30T09:27:24.409Z,94258.32
2019-01-30T09:29:55.428Z,94254.94
2019-01-30T09:32:27.222Z,94257.24
2019-01-30T09:34:58.306Z,94257.42
2019-01-30T09:37:29.341Z,94262.69
2019-01-30T09:40:00.342Z,94261.53
2019-01-30T09:42:31.679Z,94268.45
2019-01-30T09:45:03.037Z,94269.84
2019-01-30T09:47:34.473Z,94263.64
2019-01-30T09:50:08.963Z,94262.25
2019-01-30T09:52:40.000Z,94261.73
2019-01-30T09:55:12.259Z,94264.59
2019-01-30T09:57:43.967Z,94276.77
2019-01-30T10:00:38.615Z,94273.53
2019-01-30T10:03:09.709Z,94272.48
2019-01-30T10:05:40.833Z,94283.33
2019-01-30T10:08:12.261Z,94285.00
2019-01-30T10:10:43.431Z,94277.89
2019-01-30T10:13:14.803Z,94283.69
2019-01-30T10:15:46.426Z,94284.89
2019-01-30T10:18:17.618Z,94283.75
2019-01-30T10:20:49.473Z,94286.88
2019-01-30T10:23:20.781Z,94289.67
2019-01-30T10:25:51.866Z,94293.11
2019-01-30T10:28:22.958Z,94294.19
2019-01-30T10:30:54.290Z,94300.55
2019-01-30T10:33:25.590Z,94312.72
2019-01-30T10:35:56.951Z,94300.66
2019-01-30T10:38:28.330Z,94304.01
2019-01-30T10:40:59.356Z,94305.17
2019-01-30T10:43:30.555Z,94309.36
2019-01-30T10:46:01.650Z,94302.36
2019-01-30T10:48:33.107Z,94305.76
2019-01-30T10:51:04.223Z,94301.95
2019-01-30T10:53:35.619Z,94305.19
2019-01-30T10:56:06.751Z,94302.01
2019-01-30T10:58:39.039Z,94305.52
2019-01-30T11:01:10.265Z,94302.23
2019-01-30T11:03:41.458Z,94305.05
2019-01-30T11:06:13.523Z,94307.09
2019-01-30T11:08:44.635Z,94310.73
2019-01-30T11:11:15.824Z,94329.11
2019-01-30T11:14:06.188Z,94296.25
2019-01-30T11:16:38.678Z,94292.64
2019-01-30T11:19:09.774Z,94303.58
2019-01-30T11:21:40.819Z,94312.74
2019-01-30T11:24:11.992Z,94302.98
2019-01-30T11:26:43.416Z,94307.53
2019-01-30T11:29:14.404Z,94308.73
2019-01-30T11:31:45.775Z,94311.83
2019-01-30T11:34:17.109Z,94307.16
2019-01-30T11:36:48.156Z,94300.33
2019-01-30T11:39:19.319Z,94300.91
2019-01-30T11:41:50.376Z,94310.98
2019-01-30T11:44:21.475Z,94312.62
2019-01-30T11:46:52.454Z,94312.42
2019-01-30T11:49:23.714Z,94311.44
2019-01-30T11:51:55.067Z,94316.25
2019-01-30T11:54:27.279Z,94322.50
2019-01-30T11:56:58.418Z,94328.97
2019-01-30T11:59:29.397Z,94330.14
2019-01-30T12:02:00.557Z,94338.94
2019-01-30T12:04:31.526Z,94347.16
2019-01-30T12:07:02.576Z,94350.66
2019-01-30T12:09:33.789Z,94354.89
2019-01-30T12:12:05.164Z,94363.39
2019-01-30T12:14:36.140Z,94358.58
2019-01-30T12:17:08.656Z,94360.11
2019-01-30T12:19:39.713Z,94361.81
2019-01-30T12:22:11.149Z,94358.53
2019-01-30T12:24:42.199Z,94358.88
2019-01-30T12:27:13.562Z,94356.55
2019-01-30T12:29:47.662Z,94367.84
2019-01-30T12:32:18.635Z,94364.15
2019-01-30T12:34:50.014Z,94369.83
2019-01-30T12:37:21.083Z,94377.69
2019-01-30T12:39:52.135Z,94383.87
2019-01-30T12:42:23.266Z,94389.07
2019-01-30T12:44:54.794Z,94389.69
2019-01-30T12:47:25.854Z,94394.59
2019-01-30T12:49:56.955Z,94403.24
2019-01-30T12:52:27.940Z,94401.03
2019-01-30T12:54:58.909Z,94397.75
2019-01-30T12:57:30.308Z,94397.92
2019-01-30T13:00:01.696Z,94402.61
2019-01-30T13:02:32.858Z,94403.58
2019-01-30T13:05:04.245Z,94406.30
2019-01-30T13:07:35.345Z,94406.23
2019-01-30T13:10:08.690Z,94407.16
2019-01-30T13:12:39.868Z,94414.27
2019-01-30T13:15:13.946Z,94416.82
2019-01-30T13:17:46.800Z,94415.88
2019-01-30T13:20:20.257Z,94421.56
2019-01-30T13:22:51.948Z,94420.63
2019-01-30T13:25:27.311Z,94429.41
2019-01-30T13:27:58.751Z,94424.53
2019-01-30T13:30:33.764Z,94429.63
2019-01-30T13:33:07.714Z,94422.67
2019-01-30T13:35:39.958Z,94433.27
2019-01-30T13:38:12.469Z,94424.55
2019-01-30T13:40:44.066Z,94428.16
2019-01-30T13:43:15.913Z,94438.58
2019-01-30T13:45:47.108Z,94442.84
2019-01-30T13:48:21.663Z,94445.84
2019-01-30T13:50:52.758Z,94449.92
2019-01-30T13:53:23.817Z,94449.84
2019-01-30T13:55:54.803Z,94455.52
2019-01-30T13:58:25.863Z,94453.02
2019-01-30T14:00:57.176Z,94468.16
2019-01-30T14:03:28.181Z,94468.55
2019-01-30T14:05:59.334Z,94477.22
2019-01-30T14:08:30.685Z,94488.28
2019-01-30T14:11:02.366Z,94484.27
2019-01-30T14:13:33.861Z,94497.26
2019-01-30T14:16:05.406Z,94507.50
2019-01-30T14:18:36.681Z,94519.72
2019-01-30T14:21:08.135Z,94518.16
2019-01-30T14:23:40.148Z,94518.09
2019-01-30T14:26:12.474Z,94519.52
2019-01-30T14:28:43.560Z,94526.36
2019-01-30T14:31:14.540Z,94523.19
2019-01-30T14:33:46.004Z,94532.16
2019-01-30T14:36:17.592Z,94532.62
2019-01-30T14:38:48.625Z,94534.70
2019-01-30T14:41:21.132Z,94543.70
2019-01-30T14:43:52.277Z,94541.04
2019-01-30T14:46:23.564Z,94549.07
2019-01-30T14:48:54.610Z,94548.39
2019-01-30T14:51:25.633Z,94555.48
2019-01-30T14:53:56.768Z,94560.56
2019-01-30T14:56:27.976Z,94559.08
2019-01-30T14:58:59.019Z,94570.18
2019-01-30T15:01:30.258Z,94568.81
2019-01-30T15:04:01.659Z,94578.08
2019-01-30T15:06:32.755Z,94579.01
2019-01-30T15:09:06.767Z,94584.31
2019-01-30T15:11:38.455Z,94585.16
2019-01-30T15:14:09.886Z,94593.74
2019-01-30T15:16:41.459Z,94592.88
2019-01-30T15:19:12.808Z,94592.23
2019-01-30T15:21:43.989Z,94594.55
2019-01-30T15:24:14.965Z,94601.34
2019-01-30T15:26:47.250Z,94603.02
2019-01-30T15:29:19.333Z,94606.86
2019-01-30T15:31:50.297Z,94610.14
2019-01-30T15:34:21.512Z,94614.32
2019-01-30T15:36:53.241Z,94619.97
2019-01-30T15:39:24.261Z,94619.46
2019-01-30T15:41:56.199Z,94625.67
2019-01-30T15:44:28.575Z,94623.73
2019-01-30T15:46:59.916Z,94628.79
2019-01-30T15:49:31.458Z,94634.73
2019-01-30T15:52:04.219Z,94632.98
2019-01-30T15:54:35.440Z,94636.81
2019-01-30T15:57:06.804Z,94633.92
2019-01-30T15:59:38.092Z,94639.84
2019-01-30T16:02:09.932Z,94638.98
2019-01-30T16:04:41.510Z,94652.59
2019-01-30T16:07:13.455Z,94642.09
2019-01-30T16:09:45.079Z,94650.48
2019-01-30T16:12:16.619Z,94658.22
2019-01-30T16:14:47.629Z,94664.28
2019-01-30T16:17:19.251Z,94656.77
2019-01-30T16:19:50.268Z,94667.09
2019-01-30T16:22:21.526Z,94669.48
2019-01-30T16:24:53.258Z,94675.12
2019-01-30T16:27:25.714Z,94680.50
2019-01-30T16:29:57.321Z,94672.75
2019-01-30T16:32:29.213Z,94681.20
2019-01-30T16:35:00.813Z,94689.30
2019-01-30T16:37:32.082Z,94708.52
2019-01-30T16:40:03.248Z,94706.91
2019-01-30T16:42:34.735Z,94714.14
2019-01-30T16:45:09.445Z,94719.59
2019-01-30T16:47:41.802Z,94719.59
2019-01-30T16:50:15.464Z,94726.87
2019-01-30T16:52:47.220Z,94724.41
2019-01-30T16:55:19.735Z,94741.34
2019-01-30T16:57:52.125Z,94733.86
2019-01-30T17:00:28.332Z,94740.07
2019-01-30T17:03:00.129Z,94748.98
2019-01-30T17:05:32.405Z,94747.17
2019-01-30T17:08:04.794Z,94760.62
2019-01-30T17:10:36.730Z,94761.71
2019-01-30T17:13:09.403Z,94774.30
2019-01-30T17:15:41.413Z,94772.48
2019-01-30T17:18:16.169Z,94780.37
2019-01-30T17:20:48.617Z,94776.12
2019-01-30T17:23:22.190Z,94786.27
2019-01-30T17:25:54.242Z,94790.48
2019-01-30T17:28:25.618Z,94797.06
2019-01-30T17:31:03.628Z,94809.73
2019-01-30T17:33:37.091Z,94808.98
2019-01-30T17:36:18.185Z,94812.49
2019-01-30T17:38:43.482Z,94818.81
2019-01-30T17:41:14.663Z,94820.58
2019-01-30T17:43:48.078Z,94823.32
2019-01-30T17:46:19.803Z,94819.91
2019-01-30T17:48:51.921Z,94827.02
2019-01-30T17:51:25.061Z,94829.15
2019-01-30T17:53:58.297Z,94832.38
2019-01-30T17:56:31.929Z,94838.52
2019-01-30T17:59:04.754Z,94835.58
2019-01-30T18:01:38.446Z,94839.16
2019-01-30T18:04:12.712Z,94847.20
2019-01-30T18:06:46.979Z,94842.73
2019-01-30T18:09:22.015Z,94849.19
2019-01-30T18:11:55.160Z,94849.45
2019-01-30T18:14:28.718Z,94850.46
2019-01-30T18:17:02.660Z,94850.28
2019-01-30T18:19:36.758Z,94849.36
2019-01-30T18:22:12.402Z,94849.16
2019-01-30T18:24:49.303Z,94854.65
2019-01-30T18:27:24.872Z,94849.87
2019-01-30T18:29:59.105Z,94855.97
2019-01-30T18:32:32.809Z,94854.77
2019-01-30T18:35:06.887Z,94862.35
2019-01-30T18:37:41.093Z,94864.46
2019-01-30T18:40:18.260Z,94864.75
2019-01-30T18:42:52.291Z,94867.14
2019-01-30T18:45:27.800Z,94873.20
2019-01-30T18:48:01.753Z,94866.66
2019-01-30T18:50:35.331Z,94869.74
2019-01-30T18:53:07.687Z,94872.30
2019-01-30T18:55:40.366Z,94870.11
2019-01-30T18:58:12.931Z,94867.52
2019-01-30T19:00:46.703Z,94870.92
2019-01-30T19:03:21.642Z,94871.54
2019-01-30T19:05:55.384Z,94886.94
2019-01-30T19:08:31.353Z,94884.59
2019-01-30T19:11:04.349Z,94885.19
2019-01-30T19:13:39.611Z,94878.00
2019-01-30T19:16:13.070Z,94879.78
2019-01-30T19:18:49.079Z,94878.28
2019-01-30T19:21:23.027Z,94878.69
2019-01-30T19:23:59.837Z,94876.66
2019-01-30T19:26:33.859Z,94872.42
2019-01-30T19:29:08.796Z,94871.33
2019-01-30T19:31:44.841Z,94874.02
2019-01-30T19:34:20.006Z,94870.23
2019-01-30T19:37:03.219Z,94869.63
2019-01-30T19:39:32.658Z,94869.17
2019-01-30T19:42:09.460Z,94867.39
2019-01-30T19:44:44.492Z,94873.64
2019-01-30T19:47:19.298Z,94873.65
2019-01-30T19:49:54.641Z,94869.24
2019-01-30T19:52:30.116Z,94867.05
2019-01-30T19:55:06.281Z,94862.39
2019-01-30T19:57:42.357Z,94866.02
2019-01-30T20:00:25.080Z,94876.20
2019-01-30T20:03:01.666Z,94872.79
2019-01-30T20:05:39.060Z,94869.46
2019-01-30T20:08:14.856Z,94871.16
2019-01-30T20:10:53.521Z,94875.35
2019-01-30T20:13:29.703Z,94874.13
2019-01-30T20:16:05.729Z,94873.65
2019-01-30T20:18:41.389Z,94871.33
2019-01-30T20:21:17.534Z,94873.64
2019-01-30T20:23:54.214Z,94877.42
2019-01-30T20:26:30.201Z,94872.14
2019-01-30T20:29:05.869Z,94872.30
2019-01-30T20:31:42.790Z,94871.33
2019-01-30T20:34:19.105Z,94869.98
2019-01-30T20:36:54.504Z,94877.47
2019-01-30T20:39:32.211Z,94881.25
2019-01-30T20:42:07.885Z,94881.13
2019-01-30T20:44:44.044Z,94884.38
2019-01-30T20:47:19.345Z,94880.63
2019-01-30T20:49:54.865Z,94879.73
2019-01-30T20:52:29.928Z,94883.31
2019-01-30T20:55:04.783Z,94881.69
2019-01-30T20:57:40.574Z,94885.59
2019-01-30T21:00:23.368Z,94881.89
2019-01-30T21:02:57.996Z,94890.91
2019-01-30T21:05:33.258Z,94891.34
2019-01-30T21:08:08.467Z,94893.91
2019-01-30T21:10:44.129Z,94887.53
2019-01-30T21:13:18.649Z,94893.74
2019-01-30T21:15:52.639Z,94899.26
2019-01-30T21:18:26.552Z,94893.10
2019-01-30T21:21:01.303Z,94885.39
2019-01-30T21:23:36.375Z,94889.77
2019-01-30T21:26:10.495Z,94892.37
2019-01-30T21:28:44.845Z,94887.44
2019-01-30T21:31:19.650Z,94885.27
2019-01-30T21:33:52.653Z,94883.38
2019-01-30T21:36:25.458Z,94882.66
2019-01-30T21:39:01.155Z,94880.85
2019-01-30T21:41:34.198Z,94881.86
2019-01-30T21:44:08.790Z,94878.97
2019-01-30T21:46:43.225Z,94880.33
2019-01-30T21:49:16.950Z,94884.68
2019-01-30T21:51:49.472Z,94883.10
2019-01-30T21:54:23.164Z,94885.30
2019-01-30T21:56:55.533Z,94884.71
2019-01-30T21:59:27.658Z,94887.18
2019-01-30T22:02:08.135Z,94887.70
2019-01-30T22:04:34.739Z,94891.48
2019-01-30T22:07:07.372Z,94890.28
2019-01-30T22:09:41.604Z,94895.30
2019-01-30T22:12:14.724Z,94885.20
2019-01-30T22:14:46.745Z,94886.50
2019-01-30T22:17:18.431Z,94894.41
2019-01-30T22:19:50.013Z,94894.42
2019-01-30T22:22:21.221Z,94893.33
2019-01-30T22:24:52.745Z,94885.20
2019-01-30T22:27:23.738Z,94889.83
2019-01-30T22:29:55.297Z,94885.04
2019-01-30T22:32:26.930Z,94894.20
2019-01-30T22:34:58.044Z,94887.23
2019-01-30T22:37:29.315Z,94895.02
2019-01-30T22:40:00.655Z,94894.43
2019-01-30T22:42:32.859Z,94896.72
2019-01-30T22:45:04.593Z,94894.61
2019-01-30T22:47:36.139Z,94894.34
2019-01-30T22:50:08.741Z,94889.44
2019-01-30T22:52:39.882Z,94889.73
2019-01-30T22:55:13.899Z,94889.44
2019-01-30T22:57:44.988Z,94880.06
2019-01-30T23:01:06.648Z,94877.37
2019-01-30T23:03:54.064Z,94878.66
2019-01-30T23:07:21.930Z,94878.45
2019-01-30T23:10:49.857Z,94876.78
2019-01-30T23:14:10.063Z,94873.67
2019-01-30T23:18:03.056Z,94869.97
2019-01-30T23:21:02.605Z,94861.67
2019-01-30T23:24:51.568Z,94868.19
2019-01-30T23:28:16.886Z,94860.41
2019-01-30T23:32:03.251Z,94864.59
2019-01-30T23:35:26.760Z,94862.80
2019-01-30T23:38:08.929Z,94860.75
2019-01-30T23:41:03.446Z,94858.27
2019-01-30T23:44:29.207Z,94857.59
2019-01-30T23:47:44.463Z,94855.52
2019-01-30T23:50:45.480Z,94847.34
2019-01-30T23:53:56.968Z,94846.24
2019-01-30T23:57:18.310Z,94849.71
